Aviation Digital Data Service (ADDS)

Output produced by METARs form (1454 UTC 21 May 2019)
found at http://www.aviationweather.gov/metar/data/
 
METAR text: NGFU 211400Z 11006KT 9999 VCSH FEW017CB SCT018TCU BKN100 28/26 Q1009
Conditions at: NGFU (FUNAFUTI TUVALU , FJ) observed 1400 UTC 21 May 2019
Temperature: 28.0°C (82°F)
Dewpoint: 26.0°C (79°F) [RH = 89%]
Pressure (altimeter): 29.79 inches Hg (1009.0 mb)
Winds: from the ESE (110 degrees) at 7 MPH (6 knots; 3.1 m/s)
Visibility: 6 or more miles (10+ km)
Ceiling: 10000 feet AGL
Clouds: few clouds at 1700 feet AGL
scattered clouds at 1800 feet AGL
broken clouds at 10000 feet AGL
Weather: VCSH  (showers in vicinity)

METAR text: NGFU 211300Z VRB01KT 9999 SCT018TCU BKN310 28/26 Q1009
Conditions at: NGFU (FUNAFUTI TUVALU , FJ) observed 1300 UTC 21 May 2019
Temperature: 28.0°C (82°F)
Dewpoint: 26.0°C (79°F) [RH = 89%]
Pressure (altimeter): 29.79 inches Hg (1009.0 mb)
Winds: variable direction winds at 1 MPH (1 knots; 0.5 m/s)
Visibility: 6 or more miles (10+ km)
Ceiling: 31000 feet AGL
Clouds: scattered clouds at 1800 feet AGL
broken clouds at 31000 feet AGL
Weather: no significant weather observed at this time

METAR text: NGFU 211200Z VRB01KT 9999 SCT018TCU BKN310 28/26 Q1010
Conditions at: NGFU (FUNAFUTI TUVALU , FJ) observed 1200 UTC 21 May 2019
Temperature: 28.0°C (82°F)
Dewpoint: 26.0°C (79°F) [RH = 89%]
Pressure (altimeter): 29.82 inches Hg (1010.0 mb)
Winds: variable direction winds at 1 MPH (1 knots; 0.5 m/s)
Visibility: 6 or more miles (10+ km)
Ceiling: 31000 feet AGL
Clouds: scattered clouds at 1800 feet AGL
broken clouds at 31000 feet AGL
Weather: no significant weather observed at this time

METAR text: NGFU 211100Z 00000KT 9999 SCT018TCU BKN110 29/26 Q1010
Conditions at: NGFU (FUNAFUTI TUVALU , FJ) observed 1100 UTC 21 May 2019
Temperature: 29.0°C (84°F)
Dewpoint: 26.0°C (79°F) [RH = 84%]
Pressure (altimeter): 29.82 inches Hg (1010.0 mb)
Winds: calm
Visibility: 6 or more miles (10+ km)
Ceiling: 11000 feet AGL
Clouds: scattered clouds at 1800 feet AGL
broken clouds at 11000 feet AGL
Weather: no significant weather observed at this time

METAR text: NGFU 211000Z 00000KT 9999 FEW018TCU BKN100 29/26 Q1010
Conditions at: NGFU (FUNAFUTI TUVALU , FJ) observed 1000 UTC 21 May 2019
Temperature: 29.0°C (84°F)
Dewpoint: 26.0°C (79°F) [RH = 84%]
Pressure (altimeter): 29.82 inches Hg (1010.0 mb)
Winds: calm
Visibility: 6 or more miles (10+ km)
Ceiling: 10000 feet AGL
Clouds: few clouds at 1800 feet AGL
broken clouds at 10000 feet AGL
Weather: no significant weather observed at this time

METAR text: NGFU 210900Z 00000KT 9999 SCT018TCU BKN100 28/27 Q1010
Conditions at: NGFU (FUNAFUTI TUVALU , FJ) observed 0900 UTC 21 May 2019
Temperature: 28.0°C (82°F)
Dewpoint: 27.0°C (81°F) [RH = 94%]
Pressure (altimeter): 29.82 inches Hg (1010.0 mb)
Winds: calm
Visibility: 6 or more miles (10+ km)
Ceiling: 10000 feet AGL
Clouds: scattered clouds at 1800 feet AGL
broken clouds at 10000 feet AGL
Weather: no significant weather observed at this time

METAR text: NGFU 210800Z 00000KT 9999 FEW018TCU SCT310 29/26 Q1010
Conditions at: NGFU (FUNAFUTI TUVALU , FJ) observed 0800 UTC 21 May 2019
Temperature: 29.0°C (84°F)
Dewpoint: 26.0°C (79°F) [RH = 84%]
Pressure (altimeter): 29.82 inches Hg (1010.0 mb)
Winds: calm
Visibility: 6 or more miles (10+ km)
Ceiling: at least 12,000 feet AGL
Clouds: few clouds at 1800 feet AGL
scattered clouds at 31000 feet AGL
Weather: no significant weather observed at this time

METAR text: NGFU 210700Z 00000KT 9999 FEW020 SCT310 29/26 Q1009
Conditions at: NGFU (FUNAFUTI TUVALU , FJ) observed 0700 UTC 21 May 2019
Temperature: 29.0°C (84°F)
Dewpoint: 26.0°C (79°F) [RH = 84%]
Pressure (altimeter): 29.79 inches Hg (1009.0 mb)
Winds: calm
Visibility: 6 or more miles (10+ km)
Ceiling: at least 12,000 feet AGL
Clouds: few clouds at 2000 feet AGL
scattered clouds at 31000 feet AGL
Weather: no significant weather observed at this time

METAR text: NGFU 210600Z VRB02KT 9999 FEW018TCU BKN100 29/25 Q1008
Conditions at: NGFU (FUNAFUTI TUVALU , FJ) observed 0600 UTC 21 May 2019
Temperature: 29.0°C (84°F)
Dewpoint: 25.0°C (77°F) [RH = 79%]
Pressure (altimeter): 29.76 inches Hg (1008.0 mb)
Winds: variable direction winds at 2 MPH (2 knots; 1.0 m/s)
Visibility: 6 or more miles (10+ km)
Ceiling: 10000 feet AGL
Clouds: few clouds at 1800 feet AGL
broken clouds at 10000 feet AGL
Weather: no significant weather observed at this time

METAR text: NGFU 210500Z VRB01KT 9999 FEW018TCU BKN110 29/26 Q1008
Conditions at: NGFU (FUNAFUTI TUVALU , FJ) observed 0500 UTC 21 May 2019
Temperature: 29.0°C (84°F)
Dewpoint: 26.0°C (79°F) [RH = 84%]
Pressure (altimeter): 29.76 inches Hg (1008.0 mb)
Winds: variable direction winds at 1 MPH (1 knots; 0.5 m/s)
Visibility: 6 or more miles (10+ km)
Ceiling: 11000 feet AGL
Clouds: few clouds at 1800 feet AGL
broken clouds at 11000 feet AGL
Weather: no significant weather observed at this time

METAR text: NGFU 210400Z VRB02KT 9999 VCSH SCT018TCU BKN110 30/26 Q1007
Conditions at: NGFU (FUNAFUTI TUVALU , FJ) observed 0400 UTC 21 May 2019
Temperature: 30.0°C (86°F)
Dewpoint: 26.0°C (79°F) [RH = 79%]
Pressure (altimeter): 29.73 inches Hg (1007.0 mb)
Winds: variable direction winds at 2 MPH (2 knots; 1.0 m/s)
Visibility: 6 or more miles (10+ km)
Ceiling: 11000 feet AGL
Clouds: scattered clouds at 1800 feet AGL
broken clouds at 11000 feet AGL
Weather: VCSH  (showers in vicinity)

METAR text: NGFU 210300Z 10003KT 9999 VCSH SCT018TCU BKN110 29/26 Q1008
Conditions at: NGFU (FUNAFUTI TUVALU , FJ) observed 0300 UTC 21 May 2019
Temperature: 29.0°C (84°F)
Dewpoint: 26.0°C (79°F) [RH = 84%]
Pressure (altimeter): 29.76 inches Hg (1008.0 mb)
Winds: from the E (100 degrees) at 3 MPH (3 knots; 1.5 m/s)
Visibility: 6 or more miles (10+ km)
Ceiling: 11000 feet AGL
Clouds: scattered clouds at 1800 feet AGL
broken clouds at 11000 feet AGL
Weather: VCSH  (showers in vicinity)

METAR text: NGFU 210200Z VRB02KT 9999 VCSH SCT018TCU BKN110 29/25 Q1008
Conditions at: NGFU (FUNAFUTI TUVALU , FJ) observed 0200 UTC 21 May 2019
Temperature: 29.0°C (84°F)
Dewpoint: 25.0°C (77°F) [RH = 79%]
Pressure (altimeter): 29.76 inches Hg (1008.0 mb)
Winds: variable direction winds at 2 MPH (2 knots; 1.0 m/s)
Visibility: 6 or more miles (10+ km)
Ceiling: 11000 feet AGL
Clouds: scattered clouds at 1800 feet AGL
broken clouds at 11000 feet AGL
Weather: VCSH  (showers in vicinity)

METAR text: NGFU 210100Z 05004KT 9999 SCT018TCU BKN110 28/25 Q1009
Conditions at: NGFU (FUNAFUTI TUVALU , FJ) observed 0100 UTC 21 May 2019
Temperature: 28.0°C (82°F)
Dewpoint: 25.0°C (77°F) [RH = 84%]
Pressure (altimeter): 29.79 inches Hg (1009.0 mb)
Winds: from the NE (50 degrees) at 5 MPH (4 knots; 2.1 m/s)
Visibility: 6 or more miles (10+ km)
Ceiling: 11000 feet AGL
Clouds: scattered clouds at 1800 feet AGL
broken clouds at 11000 feet AGL
Weather: no significant weather observed at this time

METAR text: NGFU 210000Z 05005KT 9999 VCSH SCT018TCU BKN110 28/25 Q1010
Conditions at: NGFU (FUNAFUTI TUVALU , FJ) observed 0000 UTC 21 May 2019
Temperature: 28.0°C (82°F)
Dewpoint: 25.0°C (77°F) [RH = 84%]
Pressure (altimeter): 29.82 inches Hg (1010.0 mb)
Winds: from the NE (50 degrees) at 6 MPH (5 knots; 2.6 m/s)
Visibility: 6 or more miles (10+ km)
Ceiling: 11000 feet AGL
Clouds: scattered clouds at 1800 feet AGL
broken clouds at 11000 feet AGL
Weather: VCSH  (showers in vicinity)

METAR text: NGFU 202300Z 08008KT 9999 SHRA FEW015CB SCT018TCU BKN110 27/25 Q1011 RERA
Conditions at: NGFU (FUNAFUTI TUVALU , FJ) observed 2300 UTC 20 May 2019
Temperature: 27.0°C (81°F)
Dewpoint: 25.0°C (77°F) [RH = 89%]
Pressure (altimeter): 29.85 inches Hg (1011.0 mb)
Winds: from the E (80 degrees) at 9 MPH (8 knots; 4.1 m/s)
Visibility: 6 or more miles (10+ km)
Ceiling: 11000 feet AGL
Clouds: few clouds at 1500 feet AGL
scattered clouds at 1800 feet AGL
broken clouds at 11000 feet AGL
Weather: SHRA  (rain showers)

METAR text: NGFU 202200Z 03005KT 9999 VCSH SCT015CB FEW018TCU BKN110 30/26 Q1011
Conditions at: NGFU (FUNAFUTI TUVALU , FJ) observed 2200 UTC 20 May 2019
Temperature: 30.0°C (86°F)
Dewpoint: 26.0°C (79°F) [RH = 79%]
Pressure (altimeter): 29.85 inches Hg (1011.0 mb)
Winds: from the NNE (30 degrees) at 6 MPH (5 knots; 2.6 m/s)
Visibility: 6 or more miles (10+ km)
Ceiling: 11000 feet AGL
Clouds: scattered clouds at 1500 feet AGL
few clouds at 1800 feet AGL
broken clouds at 11000 feet AGL
Weather: VCSH  (showers in vicinity)

METAR text: NGFU 202100Z 08008KT 9999 SCT018TCU BKN110 29/26 Q1011
Conditions at: NGFU (FUNAFUTI TUVALU , FJ) observed 2100 UTC 20 May 2019
Temperature: 29.0°C (84°F)
Dewpoint: 26.0°C (79°F) [RH = 84%]
Pressure (altimeter): 29.85 inches Hg (1011.0 mb)
Winds: from the E (80 degrees) at 9 MPH (8 knots; 4.1 m/s)
Visibility: 6 or more miles (10+ km)
Ceiling: 11000 feet AGL
Clouds: scattered clouds at 1800 feet AGL
broken clouds at 11000 feet AGL
Weather: no significant weather observed at this time

METAR text: NGFU 202000Z 01012KT 9999 VCSH SCT015CB FEW017TCU BKN110 30/25 Q1010 RMK CB TO NE
Conditions at: NGFU (FUNAFUTI TUVALU , FJ) observed 2000 UTC 20 May 2019
Temperature: 30.0°C (86°F)
Dewpoint: 25.0°C (77°F) [RH = 75%]
Pressure (altimeter): 29.82 inches Hg (1010.0 mb)
Winds: from the N (10 degrees) at 14 MPH (12 knots; 6.2 m/s)
Visibility: 6 or more miles (10+ km)
Ceiling: 11000 feet AGL
Clouds: scattered clouds at 1500 feet AGL
few clouds at 1700 feet AGL
broken clouds at 11000 feet AGL
Weather: VCSH  (showers in vicinity)

METAR text: NGFU 201900Z 36009KT 9999 FEW018TCU BKN110 29/25 Q1010
Conditions at: NGFU (FUNAFUTI TUVALU , FJ) observed 1900 UTC 20 May 2019
Temperature: 29.0°C (84°F)
Dewpoint: 25.0°C (77°F) [RH = 79%]
Pressure (altimeter): 29.82 inches Hg (1010.0 mb)
Winds: from the N (360 degrees) at 10 MPH (9 knots; 4.6 m/s)
Visibility: 6 or more miles (10+ km)
Ceiling: 11000 feet AGL
Clouds: few clouds at 1800 feet AGL
broken clouds at 11000 feet AGL
Weather: no significant weather observed at this time

METAR text: NGFU 201800Z 01007KT 9999 VCSH FEW015CB SCT017TCU BKN100 29/26 Q1009 RERA
Conditions at: NGFU (FUNAFUTI TUVALU , FJ) observed 1800 UTC 20 May 2019
Temperature: 29.0°C (84°F)
Dewpoint: 26.0°C (79°F) [RH = 84%]
Pressure (altimeter): 29.79 inches Hg (1009.0 mb)
Winds: from the N (10 degrees) at 8 MPH (7 knots; 3.6 m/s)
Visibility: 6 or more miles (10+ km)
Ceiling: 10000 feet AGL
Clouds: few clouds at 1500 feet AGL
scattered clouds at 1700 feet AGL
broken clouds at 10000 feet AGL
Weather: VCSH  (showers in vicinity)

METAR text: NGFU 201700Z 02011KT 9999 2000N RA SCT015CB FEW017TCU BKN100 29 /26 Q1008 RMK CB TO N
Conditions at: NGFU (FUNAFUTI TUVALU , FJ) observed 1700 UTC 20 May 2019
Temperature: missing
Dewpoint: missing
Pressure (altimeter): 29.76 inches Hg (1008.0 mb)
Winds: from the NNE (20 degrees) at 13 MPH (11 knots; 5.7 m/s)
Visibility: 6 or more miles (10+ km)
Ceiling: 10000 feet AGL
Clouds: scattered clouds at 1500 feet AGL
few clouds at 1700 feet AGL
broken clouds at 10000 feet AGL
Weather: RA  (moderate rain)

METAR text: NGFU 201600Z 02012KT 9999 FEW018TCU BKN110 29/25 Q1008
Conditions at: NGFU (FUNAFUTI TUVALU , FJ) observed 1600 UTC 20 May 2019
Temperature: 29.0°C (84°F)
Dewpoint: 25.0°C (77°F) [RH = 79%]
Pressure (altimeter): 29.76 inches Hg (1008.0 mb)
Winds: from the NNE (20 degrees) at 14 MPH (12 knots; 6.2 m/s)
Visibility: 6 or more miles (10+ km)
Ceiling: 11000 feet AGL
Clouds: few clouds at 1800 feet AGL
broken clouds at 11000 feet AGL
Weather: no significant weather observed at this time

METAR text: NGFU 201500Z 01013KT 9999 FEW018TCU BKN110 29/25 Q1008
Conditions at: NGFU (FUNAFUTI TUVALU , FJ) observed 1500 UTC 20 May 2019
Temperature: 29.0°C (84°F)
Dewpoint: 25.0°C (77°F) [RH = 79%]
Pressure (altimeter): 29.76 inches Hg (1008.0 mb)
Winds: from the N (10 degrees) at 15 MPH (13 knots; 6.7 m/s)
Visibility: 6 or more miles (10+ km)
Ceiling: 11000 feet AGL
Clouds: few clouds at 1800 feet AGL
broken clouds at 11000 feet AGL
Weather: no significant weather observed at this time

METAR text: NGFU 201400Z 36009KT 9999 FEW018TCU BKN300 29/25 Q1008
Conditions at: NGFU (FUNAFUTI TUVALU , FJ) observed 1400 UTC 20 May 2019
Temperature: 29.0°C (84°F)
Dewpoint: 25.0°C (77°F) [RH = 79%]
Pressure (altimeter): 29.76 inches Hg (1008.0 mb)
Winds: from the N (360 degrees) at 10 MPH (9 knots; 4.6 m/s)
Visibility: 6 or more miles (10+ km)
Ceiling: 30000 feet AGL
Clouds: few clouds at 1800 feet AGL
broken clouds at 30000 feet AGL
Weather: no significant weather observed at this time

METAR text: NGFU 201300Z 01011KT 9999 SCT018TCU BKN110 29/25 Q1009
Conditions at: NGFU (FUNAFUTI TUVALU , FJ) observed 1300 UTC 20 May 2019
Temperature: 29.0°C (84°F)
Dewpoint: 25.0°C (77°F) [RH = 79%]
Pressure (altimeter): 29.79 inches Hg (1009.0 mb)
Winds: from the N (10 degrees) at 13 MPH (11 knots; 5.7 m/s)
Visibility: 6 or more miles (10+ km)
Ceiling: 11000 feet AGL
Clouds: scattered clouds at 1800 feet AGL
broken clouds at 11000 feet AGL
Weather: no significant weather observed at this time

METAR text: NGFU 201200Z VRB02KT 9999 SCT018TCU BKN1000 29/25 Q1009
Conditions at: NGFU (FUNAFUTI TUVALU , FJ) observed 1200 UTC 20 May 2019
Temperature: 29.0°C (84°F)
Dewpoint: 25.0°C (77°F) [RH = 79%]
Pressure (altimeter): 29.79 inches Hg (1009.0 mb)
Winds: variable direction winds at 2 MPH (2 knots; 1.0 m/s)
Visibility: 6 or more miles (10+ km)
Ceiling: at least 12,000 feet AGL
Clouds: scattered clouds at 1800 feet AGL
Weather: no significant weather observed at this time

METAR text: NGFU 201100Z 00000KT 9999 FEW018TCU BKN310 28/25 Q1010
Conditions at: NGFU (FUNAFUTI TUVALU , FJ) observed 1100 UTC 20 May 2019
Temperature: 28.0°C (82°F)
Dewpoint: 25.0°C (77°F) [RH = 84%]
Pressure (altimeter): 29.82 inches Hg (1010.0 mb)
Winds: calm
Visibility: 6 or more miles (10+ km)
Ceiling: 31000 feet AGL
Clouds: few clouds at 1800 feet AGL
broken clouds at 31000 feet AGL
Weather: no significant weather observed at this time

METAR text: NGFU 201000Z 33006KT 9999 FEW018TCU BKN100 29/25 Q1010
Conditions at: NGFU (FUNAFUTI TUVALU , FJ) observed 1000 UTC 20 May 2019
Temperature: 29.0°C (84°F)
Dewpoint: 25.0°C (77°F) [RH = 79%]
Pressure (altimeter): 29.82 inches Hg (1010.0 mb)
Winds: from the NNW (330 degrees) at 7 MPH (6 knots; 3.1 m/s)
Visibility: 6 or more miles (10+ km)
Ceiling: 10000 feet AGL
Clouds: few clouds at 1800 feet AGL
broken clouds at 10000 feet AGL
Weather: no significant weather observed at this time

METAR text: NGFU 200900Z 34007KT 9999 SCT018TCU BKN110 29/26 Q1010
Conditions at: NGFU (FUNAFUTI TUVALU , FJ) observed 0900 UTC 20 May 2019
Temperature: 29.0°C (84°F)
Dewpoint: 26.0°C (79°F) [RH = 84%]
Pressure (altimeter): 29.82 inches Hg (1010.0 mb)
Winds: from the NNW (340 degrees) at 8 MPH (7 knots; 3.6 m/s)
Visibility: 6 or more miles (10+ km)
Ceiling: 11000 feet AGL
Clouds: scattered clouds at 1800 feet AGL
broken clouds at 11000 feet AGL
Weather: no significant weather observed at this time

METAR text: NGFU 200800Z 00000KT 9999 VCSH SCT015CB BKN100 29/25 Q1010
Conditions at: NGFU (FUNAFUTI TUVALU , FJ) observed 0800 UTC 20 May 2019
Temperature: 29.0°C (84°F)
Dewpoint: 25.0°C (77°F) [RH = 79%]
Pressure (altimeter): 29.82 inches Hg (1010.0 mb)
Winds: calm
Visibility: 6 or more miles (10+ km)
Ceiling: 10000 feet AGL
Clouds: scattered clouds at 1500 feet AGL
broken clouds at 10000 feet AGL
Weather: VCSH  (showers in vicinity)

METAR text: NGFU 200700Z VRB02KT 9999 SCT018TCU BKN310 29/25 Q1009
Conditions at: NGFU (FUNAFUTI TUVALU , FJ) observed 0700 UTC 20 May 2019
Temperature: 29.0°C (84°F)
Dewpoint: 25.0°C (77°F) [RH = 79%]
Pressure (altimeter): 29.79 inches Hg (1009.0 mb)
Winds: variable direction winds at 2 MPH (2 knots; 1.0 m/s)
Visibility: 6 or more miles (10+ km)
Ceiling: 31000 feet AGL
Clouds: scattered clouds at 1800 feet AGL
broken clouds at 31000 feet AGL
Weather: no significant weather observed at this time

METAR text: NGFU 200600Z 33010KT 9999 VCSH SCT018TCU BKN100 29/25 Q1008
Conditions at: NGFU (FUNAFUTI TUVALU , FJ) observed 0600 UTC 20 May 2019
Temperature: 29.0°C (84°F)
Dewpoint: 25.0°C (77°F) [RH = 79%]
Pressure (altimeter): 29.76 inches Hg (1008.0 mb)
Winds: from the NNW (330 degrees) at 12 MPH (10 knots; 5.1 m/s)
Visibility: 6 or more miles (10+ km)
Ceiling: 10000 feet AGL
Clouds: scattered clouds at 1800 feet AGL
broken clouds at 10000 feet AGL
Weather: VCSH  (showers in vicinity)

METAR text: NGFU 200500Z VRB02KT 9999 VCSH SCT018TCU BKN100 Q1008
Conditions at: NGFU (FUNAFUTI TUVALU , FJ) observed 0500 UTC 20 May 2019
Temperature: missing
Dewpoint: missing
Pressure (altimeter): 29.76 inches Hg (1008.0 mb)
Winds: variable direction winds at 2 MPH (2 knots; 1.0 m/s)
Visibility: 6 or more miles (10+ km)
Ceiling: 10000 feet AGL
Clouds: scattered clouds at 1800 feet AGL
broken clouds at 10000 feet AGL
Weather: VCSH  (showers in vicinity)

METAR text: NGFU 200400Z 34009KT 9999 VCSH SCT015CB OVC100 29/26 Q1007
Conditions at: NGFU (FUNAFUTI TUVALU , FJ) observed 0400 UTC 20 May 2019
Temperature: 29.0°C (84°F)
Dewpoint: 26.0°C (79°F) [RH = 84%]
Pressure (altimeter): 29.73 inches Hg (1007.0 mb)
Winds: from the NNW (340 degrees) at 10 MPH (9 knots; 4.6 m/s)
Visibility: 6 or more miles (10+ km)
Ceiling: 10000 feet AGL
Clouds: scattered clouds at 1500 feet AGL
overcast cloud deck at 10000 feet AGL
Weather: VCSH  (showers in vicinity)

METAR text: NGFU 200300Z 32008KT 9999 VCSH SCT015CB OVC100 30/24 Q1007
Conditions at: NGFU (FUNAFUTI TUVALU , FJ) observed 0300 UTC 20 May 2019
Temperature: 30.0°C (86°F)
Dewpoint: 24.0°C (75°F) [RH = 70%]
Pressure (altimeter): 29.73 inches Hg (1007.0 mb)
Winds: from the NW (320 degrees) at 9 MPH (8 knots; 4.1 m/s)
Visibility: 6 or more miles (10+ km)
Ceiling: 10000 feet AGL
Clouds: scattered clouds at 1500 feet AGL
overcast cloud deck at 10000 feet AGL
Weather: VCSH  (showers in vicinity)

Forecast for: NGFU (FUNAFUTI TUVALU , FJ)
Text: TAF NGFU 211116Z 2112/2212 36006KT 9999 SCT018 BKN100
Forecast period: 1200 UTC 21 May 2019 to 1200 UTC 22 May 2019
Forecast type: FROM: standard forecast or significant change
Winds: from the N (360 degrees) at 7 MPH (6 knots; 3.1 m/s)
Visibility: 6 or more miles 10+ km)
Ceiling: 10000 feet AGL
Clouds: scattered clouds at 1800 feet AGL
broken clouds at 10000 feet AGL
Weather: no significant weather forecast for this period
Text: PROB30
Forecast period: 1800 UTC 21 May 2019 to 0600 UTC 22 May 2019
Forecast type: TEMPORARY: The following changes expected for less than half the time period
Visibility: 3 miles (5 km)
Ceiling: 1500 feet AGL
Clouds: broken clouds at 1500 feet AGL
Weather: SHRA  (rain showers)